• Join FlightAware (Why Join?)
  • Login
  • US Flag 
11:37PM EDT


 

Airport Tracker/Info


-or-


 

Live Flight TrackerFlight Track Log ✈ EJA396 ✈ 15-Dec-2013 ✈ KVRB - KAPF

Flight Track Log - Related Links

Times and Time Zones

All times are in EST time to prevent confusion due to time zone crossing. See the EJA396 flight status page for this flight to view local times or setup timezone preferences in your user account.

Time Position Orientation Groundspeed Altitude Reporting Facility
EST Latitude Longitude Course Direction KTS MPH feet Rate Location/Type
12:26PM 27.6539 -80.4789 264° West 349 402 3,700  Level Miami Center
12:27PM 27.6481 -80.5419 264° West 255 293 8,300 2,640 Climbing Miami Center
12:28PM 27.5967 -80.5967 223° Southwest 234 269 9,000 1,200 Climbing Miami Center
12:29PM 27.5408 -80.6556 223° Southwest 258 297 10,800 2,460 Climbing Miami Center
12:30PM 27.4894 -80.7078 222° Southwest 251 289 14,000 1,560 Climbing Miami Center
12:31PM 27.4228 -80.7781 223° Southwest 293 337 14,000  Level Miami Center
12:32PM 27.3561 -80.8483 223° Southwest 318 366 14,000  Level Miami Center
12:33PM 27.3003 -80.9072 223° Southwest 323 372 14,000  Level Miami Center
12:34PM 27.2269 -80.9817 222° Southwest 323 372 14,000 -300 Level Miami Center
12:35PM 27.1603 -81.0517 223° Southwest 330 380 13,500 -780 Descending Miami Center
12:36PM 27.0936 -81.1192 222° Southwest 330 380 12,500 -1,140 Descending Miami Center
12:37PM 27.0269 -81.1889 223° Southwest 330 380 11,300 -1,200 Descending Miami Center
12:38PM 26.9600 -81.2564 222° Southwest 330 380 10,200 -660 Descending Miami Center
12:39PM 26.8911 -81.3258 222° Southwest 330 380 10,000 -360 Descending Miami Center
12:40PM 26.8308 -81.3889 223° Southwest 318 366 9,500 -840 Descending Miami Center
12:41PM 26.7650 -81.4189 202° Southwest 260 299 8,400 -780 Descending Miami Center
12:42PM 26.6928 -81.3975 165° South 246 283 8,000 -240 Descending Miami Center
12:43PM 26.6197 -81.3992 181° South 259 298 8,000 -120 Level Miami Center
12:44PM 26.5444 -81.4011 181° South 264 304 7,800 -900 Descending Miami Center
12:45PM 26.4792 -81.4169 192° South 270 311 6,300 -1,440 Descending Miami Center
12:46PM 26.4100 -81.4283 188° South 270 311 5,000 -1,320 Descending Miami Center
12:48PM 26.3010 -81.4828 204° Southwest  Level FlightAware Approximate
12:55PM 26.1500 -81.7667 246° West  Level FlightAware Approximate
12:56PM 26.1524 -81.7756 246° West  Level Estimated
12:57PM 26.1524 -81.7756 246° West  Level Estimated
12:58PM 26.1524 -81.7756 246° West  Level Estimated
12:59PM 26.1524 -81.7756 246° West  Level Estimated
01:00PM 26.1524 -81.7756 246° West  Level Estimated
01:01PM 26.1524 -81.7756 246° West  Level Estimated
01:02PM 26.1524 -81.7756 246° West  Level Estimated
01:03PM 26.1524 -81.7756 246° West  Level Estimated
01:04PM 26.1524 -81.7756 246° West  Level Estimated